Latest Weather Observations for Longreach

IDQ60801

Issued at 12:42 am EST Wednesday 29 January 2020 (issued every 10 minutes, with the page automatically refreshed every 10 minutes)

About weather observations | Map of weather stations | Latest weather observations for QLD | Other Formats
Station Details ID: 036031 Name: LONGREACH AERO Lat: -23.44 Lon: 144.28 Height: 192.2 m
Data from the previous 72 hours. | See also: Recent months at Longreach
Date/Time
EST
Temp
°C
App
Temp
°C
Dew
Point
°C
Rel
Hum
%
Delta-T
°C
Wind Press
QNH
hPa
Press
MSL
hPa
Rain since
9am
mm
Dir  Spd
km/h
Gust
km/h
Spd
kts
Gust
kts
29/12:30am 25.8 24.9 21.5 77 2.9 NE 28 37 15 20 1010.1 1008.6 0.2
29/12:00am 25.7 24.8 21.4 77 2.9 NE 28 35 15 19 1010.3 1008.8 0.2
 
Date/Time
EST
Temp
°C
App
Temp
°C
Dew
Point
°C
Rel
Hum
%
Delta-T
°C
Wind Press
QNH
hPa
Press
MSL
hPa
Rain since
9am
mm
Dir  Spd
km/h
Gust
km/h
Spd
kts
Gust
kts
28/11:30pm 25.6 24.1 21.7 79 2.6 ENE 32 37 17 20 1010.7 1009.2 0.2
28/11:00pm 25.8 24.9 21.5 77 2.9 ENE 28 35 15 19 1010.9 1009.5 0.2
28/10:30pm 26.0 24.9 21.7 77 2.9 ENE 30 37 16 20 1010.9 1009.5 0.2
28/10:00pm 25.7 23.7 21.8 79 2.6 NE 35 46 19 25 1010.4 1008.9 0.2
28/09:30pm 25.8 23.3 21.7 78 2.7 ENE 37 54 20 29 1010.7 1009.2 0.2
28/09:00pm 25.5 23.5 21.8 80 2.5 NE 35 48 19 26 1010.5 1009.0 0.2
28/08:30pm 26.0 21.9 21.9 78 2.8 NE 46 59 25 32 1009.9 1008.4 0.2
28/08:14pm 27.1 26.3 20.9 69 4.1 ENE 26 65 14 35 1009.5 1008.1 0.2
28/08:00pm 30.2 30.0 19.3 52 7.2 E 19 24 10 13 1008.7 1007.3 0.2
28/07:30pm 30.4 30.5 19.1 50 7.4 E 17 20 9 11 1008.4 1007.0 0.2
28/07:00pm 31.1 30.5 18.5 47 8.2 E 19 22 10 12 1007.9 1006.5 0.2
28/06:30pm 31.7 30.7 17.6 43 9.1 E 19 28 10 15 1007.6 1006.2 0.2
28/06:00pm 32.4 30.6 17.8 41 9.5 ESE 24 32 13 17 1007.2 1005.8 0.2
28/05:30pm 32.5 30.7 17.9 41 9.5 ESE 24 30 13 16 1007.0 1005.6 0.2
28/05:00pm 32.7 31.1 19.2 44 8.9 ESE 26 39 14 21 1006.7 1005.3 0.2
28/04:30pm 32.7 30.3 19.9 46 8.5 E 32 39 17 21 1006.8 1005.4 0.2
28/04:00pm 32.4 31.2 21.6 53 7.4 E 30 37 16 20 1007.2 1005.8 0.2
28/03:30pm 32.3 30.9 21.2 52 7.5 E 30 41 16 22 1007.7 1006.3 0.2
28/03:00pm 32.4 31.2 21.6 53 7.4 E 30 39 16 21 1008.3 1006.9 0.2
28/02:30pm 31.2 29.9 21.4 56 6.6 E 30 43 16 23 1008.9 1007.5 0.2
28/02:00pm 31.0 29.4 21.5 57 6.4 E 32 41 17 22 1009.4 1008.0 0.2
28/01:30pm 30.3 29.2 21.7 60 5.8 E 30 39 16 21 1010.0 1008.5 0.2
28/01:00pm 30.1 28.4 21.7 60 5.7 E 33 43 18 23 1010.5 1009.0 0.2
28/12:30pm 29.7 28.5 22.2 64 5.1 E 32 41 17 22 1010.8 1009.3 0.2
28/12:00pm 28.8 27.4 22.3 68 4.4 E 33 43 18 23 1011.1 1009.7 0.2
28/11:30am 28.1 26.7 21.9 69 4.2 E 32 39 17 21 1011.3 1009.9 0.2
28/11:00am 27.9 26.8 22.4 72 3.7 E 32 41 17 22 1011.4 1010.0 0.2
28/10:30am 27.6 26.3 22.1 72 3.7 E 32 39 17 21 1011.5 1010.1 0.0
28/10:00am 27.0 25.6 22.0 74 3.4 E 32 41 17 22 1011.6 1010.2 0.0
28/09:30am 26.6 25.1 22.0 76 3.1 E 33 41 18 22 1011.5 1010.1 0.0
28/09:00am 25.7 24.9 21.6 78 2.7 E 28 37 15 20 1011.3 1009.9 10.4
28/08:30am 24.8 24.5 22.5 87 1.6 ESE 28 33 15 18 1011.1 1009.7 10.4
28/08:00am 24.1 24.8 22.2 89 1.3 E 22 28 12 15 1010.8 1009.3 10.4
28/07:30am 23.6 24.7 22.0 91 1.1 ESE 19 28 10 15 1010.6 1009.1 10.4
28/07:00am 23.0 25.6 22.0 94 0.7 SE 11 15 6 8 1010.2 1008.7 10.4
28/06:30am 22.8 25.0 21.8 94 0.7 SE 13 15 7 8 1009.8 1008.3 10.4
28/06:00am 22.7 24.8 21.7 94 0.7 ESE 13 15 7 8 1009.5 1008.1 10.4
28/05:30am 22.6 24.6 21.6 94 0.7 ESE 13 15 7 8 1009.2 1007.8 10.4
28/05:00am 22.6 24.8 21.8 95 0.5 ESE 13 17 7 9 1008.8 1007.4 10.4
28/04:30am 22.6 24.4 21.8 95 0.5 E 15 19 8 10 1009.0 1007.6 10.4
28/04:00am 22.6 24.3 21.6 94 0.7 E 15 19 8 10 1008.9 1007.5 10.4
28/03:30am 22.5 25.0 21.7 95 0.5 ESE 11 15 6 8 1008.8 1007.4 10.4
28/03:20am 22.5 24.6 21.7 95 0.5 SE 13 17 7 9 1008.8 1007.4 10.4
28/03:00am 22.4 24.3 21.4 94 0.7 ESE 13 15 7 8 1008.9 1007.5 10.4
28/02:30am 22.3 24.2 21.3 94 0.7 E 13 17 7 9 1009.0 1007.6 10.4
28/02:00am 22.4 24.1 20.9 91 1.0 E 13 17 7 9 1009.3 1007.9 10.4
28/01:30am 22.5 23.5 21.0 91 1.0 NE 17 20 9 11 1009.5 1008.1 10.4
28/01:00am 22.6 23.5 20.9 90 1.1 ENE 17 20 9 11 1010.3 1008.8 10.4
28/12:30am 22.6 23.3 21.2 92 0.9 NE 19 26 10 14 1010.5 1009.0 10.4
28/12:00am 22.6 22.3 21.8 95 0.5 ENE 26 33 14 18 1011.1 1009.7 10.4
 
Date/Time
EST
Temp
°C
App
Temp
°C
Dew
Point
°C
Rel
Hum
%
Delta-T
°C
Wind Press
QNH
hPa
Press
MSL
hPa
Rain since
9am
mm
Dir  Spd
km/h
Gust
km/h
Spd
kts
Gust
kts
27/11:30pm 22.5 22.6 21.8 96 0.5 ENE 24 32 13 17 1011.2 1009.8 10.4
27/11:00pm 22.5 22.2 21.8 96 0.5 ENE 26 35 14 19 1011.2 1009.8 10.0
27/10:30pm 22.3 22.7 21.8 97 0.3 ENE 22 28 12 15 1011.3 1009.9 9.8
27/10:00pm 22.4 22.4 21.6 95 0.5 ENE 24 30 13 16 1011.5 1010.1 9.2
27/09:30pm 22.6 21.5 21.1 91 1.0 ENE 28 33 15 18 1011.3 1009.9 8.8
27/09:00pm 22.8 22.0 20.9 89 1.2 ENE 26 33 14 18 1011.2 1009.8 8.2
27/08:30pm 23.4 21.4 20.7 85 1.8 ENE 32 39 17 21 1010.6 1009.1 8.2
27/08:00pm 24.5 24.4 22.2 87 1.5 ENE 26 33 14 18 1010.1 1008.6 8.0
27/07:30pm 24.6 23.7 22.1 86 1.7 E 30 39 16 21 1009.4 1008.0 8.0
27/07:00pm 24.6 23.3 22.1 86 1.7 E 32 39 17 21 1008.7 1007.3 8.0
27/06:30pm 25.1 23.9 22.2 84 2.0 E 32 43 17 23 1008.3 1006.9 8.0
27/06:00pm 25.7 24.7 23.0 85 1.8 E 33 41 18 22 1008.1 1006.7 8.0
27/05:30pm 26.3 25.0 23.2 83 2.1 E 35 44 19 24 1007.5 1006.1 8.0
27/05:00pm 26.8 25.8 23.7 83 2.1 E 35 44 19 24 1007.3 1005.9 8.0
27/04:30pm 26.7 26.2 23.6 83 2.1 E 32 43 17 23 1007.2 1005.8 8.0
27/04:10pm 26.7 26.2 23.8 84 2.0 E 33 41 18 22 1007.3 1005.9 8.0
27/04:00pm 26.5 26.0 23.8 85 1.9 E 33 41 18 22 1007.4 1006.0 8.0
27/03:34pm 26.3 26.2 24.3 89 1.4 E 32 39 17 21 1007.6 1006.2 8.0
27/03:30pm 26.2 26.0 24.1 88 1.5 E 32 37 17 20 1007.6 1006.2 8.0
27/03:15pm 26.0 26.1 23.9 88 1.5 E 30 35 16 19 1007.8 1006.4 8.0
27/03:00pm 25.9 26.1 24.1 90 1.2 E 30 35 16 19 1007.9 1006.5 8.0
27/02:30pm 25.5 26.0 24.6 95 0.6 ENE 30 37 16 20 1008.2 1006.8 8.0
27/02:18pm 25.6 25.9 24.9 96 0.5 ENE 32 37 17 20 1008.3 1006.9 7.8
27/02:00pm 25.6 25.9 24.9 96 0.5 ENE 32 39 17 21 1008.5 1007.1 7.8
27/01:47pm 25.2 25.5 24.9 98 0.2 ENE 32 39 17 21 1008.6 1007.2 7.8
27/01:30pm 24.8 25.8 24.8 100 0.0 ENE 28 33 15 18 1009.0 1007.6 7.6
27/01:07pm 25.1 24.7 24.1 94 0.7 NE 33 39 18 21 1009.2 1007.8 1.8
27/01:00pm 25.8 25.3 23.8 89 1.4 NE 33 43 18 23 1009.2 1007.8 0.6
27/12:32pm 25.9 25.3 24.3 91 1.1 ENE 35 41 19 22 1009.4 1008.0 0.6
27/12:30pm 26.0 25.9 24.6 92 1.0 ENE 33 41 18 22 1009.4 1008.0 0.6
27/12:00pm 25.1 25.4 24.8 98 0.2 ENE 32 41 17 22 1009.7 1008.2 0.6
27/11:54am 24.9 26.2 24.6 98 0.2 ENE 26 33 14 18 1009.8 1008.3 0.6
27/11:39am 24.8 24.9 24.5 98 0.2 E 32 37 17 20 1009.9 1008.4 0.4
27/11:30am 25.0 25.2 24.7 98 0.2 E 32 39 17 21 1009.9 1008.4 0.4
27/11:00am 25.1 24.9 24.4 96 0.5 ENE 33 43 18 23 1010.0 1008.5 0.4
27/10:30am 24.9 24.3 24.4 97 0.3 ENE 35 41 19 22 1010.2 1008.7 0.4
27/10:00am 24.8 24.9 24.6 99 0.1 ENE 32 41 17 22 1010.1 1008.6 0.4
27/09:30am 24.5 24.9 24.5 100 0.0 ENE 30 35 16 19 1010.0 1008.5 0.4
27/09:00am 24.3 25.0 24.3 100 0.0 ENE 28 35 15 19 1009.9 1008.4 29.0
27/08:30am 24.0 24.5 24.0 100 0.0 ENE 28 35 15 19 1009.7 1008.2 28.0
27/08:00am 23.9 24.4 23.9 100 0.0 ENE 28 35 15 19 1009.4 1008.0 27.2
27/07:30am 23.9 24.0 23.9 100 0.0 ENE 30 37 16 20 1009.1 1007.7 26.6
27/07:18am 23.9 24.4 23.9 100 0.0 E 28 35 15 19 1009.1 1007.7 26.0
27/07:00am 23.9 25.9 23.9 100 0.0 E 20 26 11 14 1008.9 1007.5 24.0
27/06:55am 23.8 25.7 23.8 100 0.0 E 20 26 11 14 1008.9 1007.5 22.6
27/06:37am 23.9 25.9 23.9 100 0.0 ENE 20 28 11 15 1008.9 1007.5 19.6
27/06:30am 23.9 25.5 23.9 100 0.0 ENE 22 28 12 15 1009.0 1007.6 19.2
27/06:21am 23.8 24.6 23.8 100 0.0 ENE 26 33 14 18 1008.9 1007.5 18.4
27/06:00am 24.0 25.7 24.0 100 0.0 ENE 22 30 12 16 1008.7 1007.3 8.6
27/05:58am 24.1 25.8 24.1 100 0.0 ENE 22 30 12 16 1008.7 1007.3 8.0
27/05:57am 24.1 25.8 24.1 100 0.0 ENE 22 30 12 16 1008.7 1007.3 8.0
27/05:30am 24.3 26.7 24.3 100 0.0 E 19 26 10 14 1008.2 1006.8 5.6
27/05:00am 24.6 27.1 24.4 99 0.1 E 19 26 10 14 1008.1 1006.7 4.6
27/04:58am 24.6 27.1 24.4 99 0.1 E 19 26 10 14 1008.1 1006.7 4.6
27/04:31am 24.7 27.0 24.4 98 0.2 ESE 20 26 11 14 1008.2 1006.8 3.8
27/04:30am 24.7 27.0 24.4 98 0.2 ESE 20 26 11 14 1008.2 1006.8 3.8
27/04:00am 24.8 27.1 24.5 98 0.2 ESE 20 26 11 14 1008.1 1006.7 3.0
27/03:30am 25.0 27.3 24.1 95 0.6 ESE 19 24 10 13 1008.0 1006.6 2.8
27/03:00am 24.9 27.5 23.9 94 0.7 ESE 17 22 9 12 1007.9 1006.5 2.6
27/02:30am 24.9 27.3 23.7 93 0.8 E 17 22 9 12 1008.1 1006.7 2.6
27/02:00am 25.0 28.0 24.0 94 0.7 E 15 19 8 10 1008.3 1006.9 2.6
27/01:48am 25.0 28.4 24.0 94 0.7 E 13 19 7 10 1008.3 1006.9 2.6
27/01:30am 25.0 27.7 24.1 95 0.6 E 17 19 9 10 1008.4 1007.0 2.6
27/01:17am 25.0 27.8 24.3 96 0.5 E 17 22 9 12 1008.2 1006.8 2.6
27/01:00am 25.0 27.6 24.0 94 0.7 E 17 20 9 11 1008.3 1006.9 2.6
27/12:35am 25.0 26.9 23.4 91 1.1 E 19 24 10 13 1008.6 1007.2 2.6
27/12:30am 25.0 26.9 23.4 91 1.1 E 19 26 10 14 1008.6 1007.2 2.6
27/12:23am 25.1 27.0 23.5 91 1.1 E 19 24 10 13 1008.7 1007.3 2.6
27/12:00am 25.1 27.5 23.7 92 1.0 ENE 17 22 9 12 1009.0 1007.6 2.6
 
Date/Time
EST
Temp
°C
App
Temp
°C
Dew
Point
°C
Rel
Hum
%
Delta-T
°C
Wind Press
QNH
hPa
Press
MSL
hPa
Rain since
9am
mm
Dir  Spd
km/h
Gust
km/h
Spd
kts
Gust
kts
26/11:30pm 25.3 27.3 23.9 92 1.0 ENE 20 28 11 15 1009.3 1007.9 2.6
26/11:00pm 25.4 28.1 24.2 93 0.8 ENE 17 19 9 10 1009.9 1008.4 2.6
26/10:30pm 25.4 28.4 24.0 92 1.0 ENE 15 19 8 10 1010.0 1008.5 2.6
26/10:00pm 25.4 27.9 23.8 91 1.1 ENE 17 19 9 10 1010.0 1008.5 2.6
26/09:30pm 25.4 27.6 24.0 92 1.0 NE 19 26 10 14 1009.5 1008.1 2.6
26/09:00pm 25.6 26.9 24.0 91 1.1 ENE 24 30 13 16 1009.0 1007.6 2.6
26/08:30pm 25.9 27.6 24.1 90 1.2 ENE 22 30 12 16 1008.7 1007.3 2.6
26/08:00pm 26.4 27.8 24.2 88 1.5 E 24 30 13 16 1008.4 1007.0 2.6
26/07:30pm 27.3 29.1 24.2 83 2.2 ENE 22 28 12 15 1008.2 1006.8 2.6
26/07:00pm 28.0 31.2 24.4 81 2.5 E 15 17 8 9 1007.8 1006.4 2.6
26/06:30pm 27.8 30.8 23.4 77 3.0 ESE 13 15 7 8 1007.1 1005.7 2.6
26/06:00pm 27.8 31.9 24.6 83 2.2 SSE 11 13 6 7 1006.5 1005.1 2.6
26/05:30pm 27.6 31.2 24.4 83 2.2 SSE 13 19 7 10 1006.3 1004.9 2.6
26/05:00pm 28.2 31.6 24.0 78 2.9 SSE 13 19 7 10 1006.2 1004.8 2.6
26/04:30pm 28.1 32.7 25.3 85 2.0 NE 11 13 6 7 1006.0 1004.5 2.6
26/04:00pm 27.5 31.7 25.3 88 1.6 SSE 13 17 7 9 1005.9 1004.4 2.6
26/03:30pm 27.5 31.8 25.5 89 1.4 ESE 13 19 7 10 1006.5 1005.1 1.8
26/03:00pm 26.3 28.5 24.3 89 1.4 SE 20 32 11 17 1007.0 1005.6 0.2
26/02:30pm 27.7 27.3 23.7 79 2.8 E 32 48 17 26 1006.7 1005.3 0.0
26/02:22pm 29.5 31.2 23.0 68 4.5 N 19 37 10 20 1006.6 1005.2 0.0
26/02:00pm 33.8 36.4 22.6 52 7.8 NW 13 17 7 9 1006.7 1005.3 0.0
26/01:30pm 33.6 36.8 21.7 49 8.1 NNE 7 13 4 7 1007.1 1005.7 0.0
26/01:00pm 34.4 37.7 22.5 50 8.2 NNW 9 13 5 7 1007.5 1006.1 0.0
26/12:30pm 34.3 37.3 22.7 50 8.0 E 11 15 6 8 1008.2 1006.8 0.0
26/12:00pm 33.7 37.0 22.5 52 7.7 NNE 9 13 5 7 1008.7 1007.3 0.0
26/11:30am 32.5 36.7 23.4 58 6.3 ENE 7 13 4 7 1009.3 1007.9 0.0
26/11:00am 31.1 34.0 23.2 63 5.5 NNE 13 20 7 11 1009.8 1008.3 0.0
26/10:30am 30.4 32.9 23.1 65 5.0 NNE 15 26 8 14 1010.1 1008.6 0.0
26/10:00am 29.7 32.5 23.6 69 4.2 NE 15 20 8 11 1010.2 1008.7 0.0
26/09:30am 29.5 31.9 23.7 71 4.0 NE 17 26 9 14 1010.3 1008.8 0.0
26/09:00am 28.6 30.7 23.7 75 3.4 NE 19 24 10 13 1010.3 1008.8 -
26/08:30am 28.2 30.3 23.8 77 3.1 NE 19 26 10 14 1010.2 1008.7 -
26/08:06am 27.3 29.2 23.5 80 2.6 ENE 19 24 10 13 1010.1 1008.6 -
26/08:00am 27.2 28.8 23.2 79 2.7 ENE 20 26 11 14 1010.1 1008.6 -
26/07:53am 27.4 29.2 23.6 80 2.6 NE 20 26 11 14 1010.0 1008.5 -
26/07:30am 27.3 29.9 24.0 82 2.3 ENE 17 20 9 11 1009.8 1008.3 -
26/07:00am 26.0 28.6 23.3 85 1.9 E 15 19 8 10 1009.5 1008.1 -
26/06:30am 25.0 28.1 23.6 92 1.0 ENE 13 15 7 8 1009.1 1007.7 -
26/06:00am 24.9 28.3 23.3 91 1.1 NE 11 11 6 6 1008.6 1007.2 -
26/05:30am 25.0 28.7 23.2 90 1.2 ENE 9 11 5 6 1008.3 1006.9 -
26/05:00am 25.2 28.6 23.3 89 1.3 ENE 11 13 6 7 1007.9 1006.5 -
26/04:30am 25.4 28.4 23.3 88 1.4 NE 13 15 7 8 1007.7 1006.3 -
26/04:00am 25.6 29.0 23.3 87 1.6 NE 11 13 6 7 1007.8 1006.4 -
26/03:30am 25.9 28.9 23.4 86 1.7 NE 13 17 7 9 1008.0 1006.6 -
26/03:00am 26.2 28.5 23.5 85 1.9 NE 17 20 9 11 1008.0 1006.6 0.0
26/02:30am 26.3 28.1 23.2 83 2.1 NE 19 22 10 12 1007.9 1006.5 -
26/02:00am 26.6 28.2 23.3 82 2.3 NE 20 28 11 15 1007.8 1006.4 -
26/01:30am 26.6 29.1 23.1 81 2.4 NE 15 19 8 10 1008.0 1006.6 -
26/01:00am 26.6 29.0 22.9 80 2.5 NE 15 17 8 9 1008.2 1006.8 -

Other formats

Comma delimited format used in spreadsheet applications
http://www.bom.gov.au/fwo/IDQ60801/IDQ60801.94346.axf

JavaScript Object Notation format (JSON) in row-major order
http://www.bom.gov.au/fwo/IDQ60801/IDQ60801.94346.json

Data quality

Most of these data are generated automatically and are frequently updated. Quality checks on data are not normally performed. It is possible for incorrect values to appear. Refer to information at About Latest Weather Observations and please check the disclaimer before using these data.